Gulfport Biloxi International Airport
KGPT : now visible

Airfield :











YOU CAN JOIN US ON...

 
LOGIN :

Register | Disclaimer

   EN    FR    IT 

 









Legend :    VFR   Marginal VFR   IFR   Intensive IFR   Very Intensive IFR
Visi :
Ceiling :
>= 8 km
>= 3000ft
5 to 8 km
1000 to 3000 ft
1500m to 5 km
500 to 1000 ft
800 to 1500m
200 to 500 ft
< 800m
< 200 ft
Symbols :   Thunderstorms  Fog  Heavy snow  Heavy precipitations  Wind > 20 kt






- Airport Elevation : 28 ft
- IATA code : GPT


KGPT - Gulfport Biloxi International

CURRENT METAR :
  • 200553Z AUTO 18009G18KT 10SM FEW023 27/23 A2985 RMK AO2 SLP107 T02670228 10283 20267 403060233 58003

EXPIRED METARs :
  • 200453Z AUTO 18007KT 10SM FEW021 27/23 A2985 RMK AO2 SLP108 T02670228
  • 200353Z AUTO 17007KT 10SM FEW025 27/22 A2986 RMK AO2 SLP111 T02670217

TAF KGPT
Valid from the 20 at 06:00 until the 21 at 06:00 UTC


200521Z 2006/2106 17008KT P6SM SCT025
FM201400 18015KT P6SM BKN025
FM201600 17015KT P6SM SCT035
FM210100 16010KT P6SM FEW250
KZHU FIR / North America



MET'MAP, your aeronautical weather chart ! - Copyright ORBIFLY December 2007 - Disclaimer

ORBIFLY MET'MAP TEAM :

Programming & Development : Alexandra Zaïnal
Original concept : Baudouin d'Aumeries
Technical & hardware support : Manuel Goepfert
Assistance : Marc-Olivier Méhu

Contact : metmap@orbifly.com




SOURCES & CREDITS :

   NOAA       Earth
Advisory